PWSweather.com
Personal Weather Stations
Station Observations
KAZSIERR7
Canyon De Flores, Sierra Vista, AZ 85650

Canyon De FloresSierra Vista, AZ 85650

Lat: 31.5, Lon: -110.26

Elevation: 4645

Station Type: LaCrosse WS-3610 & Boltek Lightning Detector

http://www.lightningring.com/weather/

High Low Average
Temperature 92.8°F33.8°F 62.7°F17.1°F 77.0°F25.0°F
Dew Point 61.6°F16.4°F 49.9°F9.9°F 56.2°F13.4°F
Winds 15.8 mph S25.4 mph S Calm Calm 1.6 mph 2.6 mph
Wind Gusts 68.0 mph109.4 mph -- 9.2 mph14.8 mph
Humidity 90% 24% 53%
Pressure 30.24 in1024.00 in 30.09 in1019.00 in -
Precipitation 3.27 in83.10 in - -
Hour Temp Dew Point Humidity Winds Wind Gusts Pressure Precip Precip Rate Daily Precip Total
12:09 AM 68.5°F20.3°C 61.1°F16.2°C 77% Calm Calm 28.6 mph46.0 kmh 30.13 in1020.3 mb 0.02 in0.5 mm 0.13 in/hr3.3 mm/hr 0.02 in0.5 mm
12:19 AM 68.5°F20.3°C 61.1°F16.2°C 77% Calm Calm -- 30.12 in1020.0 mb 0.02 in0.5 mm 0.00 in/hr0.0 mm/hr 0.02 in0.5 mm
12:30 AM 68.5°F20.3°C 61.5°F16.4°C 78% Calm Calm -- 30.13 in1020.3 mb 0.02 in0.5 mm 0.00 in/hr0.0 mm/hr 0.02 in0.5 mm
12:40 AM 68.8°F20.4°C 60.7°F15.9°C 75% 7.4 mph S11.9 kmh S 9.8 mph15.8 kmh 30.12 in1020.0 mb 0.02 in0.5 mm 0.00 in/hr0.0 mm/hr 0.02 in0.5 mm
12:51 AM 68.8°F20.4°C 60.3°F15.7°C 74% 1.7 mph WNW2.7 kmh WNW 49.2 mph79.2 kmh 30.14 in1020.7 mb 0.02 in0.5 mm 0.00 in/hr0.0 mm/hr 0.02 in0.5 mm
01:01 AM 68.7°F20.4°C 60.2°F15.7°C 74% 3.9 mph WSW6.3 kmh WSW 42.4 mph68.2 kmh 30.12 in1020.0 mb 0.00 in0.0 mm 0.00 in/hr0.0 mm/hr 0.02 in0.5 mm
01:12 AM 68.7°F20.4°C 59.8°F15.4°C 73% 4.9 mph W7.9 kmh W 6.6 mph10.6 kmh 30.12 in1020.0 mb 0.00 in0.0 mm 0.00 in/hr0.0 mm/hr 0.02 in0.5 mm
01:22 AM 68.5°F20.3°C 59.3°F15.2°C 72% Calm Calm -- 30.12 in1020.0 mb 0.00 in0.0 mm 0.00 in/hr0.0 mm/hr 0.02 in0.5 mm
01:33 AM 69.0°F20.6°C 59.0°F15.0°C 70% Calm Calm -- 30.13 in1020.3 mb 0.00 in0.0 mm 0.00 in/hr0.0 mm/hr 0.02 in0.5 mm
01:43 AM 68.5°F20.3°C 58.9°F14.9°C 71% Calm Calm -- 30.13 in1020.3 mb 0.00 in0.0 mm 0.00 in/hr0.0 mm/hr 0.02 in0.5 mm
01:54 AM 68.8°F20.4°C 58.8°F14.9°C 70% Calm Calm -- 30.14 in1020.7 mb 0.00 in0.0 mm 0.00 in/hr0.0 mm/hr 0.02 in0.5 mm
02:04 AM 69.6°F20.9°C 61.5°F16.4°C 75% 4.4 mph SE7.1 kmh SE 7.0 mph11.3 kmh 30.16 in1021.3 mb 0.00 in0.0 mm 0.00 in/hr0.0 mm/hr 0.02 in0.5 mm
02:15 AM 69.4°F20.8°C 61.3°F16.3°C 75% Calm Calm -- 30.16 in1021.3 mb 0.00 in0.0 mm 0.00 in/hr0.0 mm/hr 0.02 in0.5 mm
02:25 AM 69.4°F20.8°C 61.6°F16.4°C 76% Calm Calm 1.6 mph2.6 kmh 30.16 in1021.3 mb 0.00 in0.0 mm 0.00 in/hr0.0 mm/hr 0.02 in0.5 mm
02:36 AM 69.7°F20.9°C 60.4°F15.8°C 72% Calm Calm -- 30.15 in1021.0 mb 0.00 in0.0 mm 0.00 in/hr0.0 mm/hr 0.02 in0.5 mm
02:46 AM 69.9°F21.1°C 59.4°F15.2°C 69% Calm Calm 6.6 mph10.6 kmh 30.15 in1021.0 mb 0.00 in0.0 mm 0.00 in/hr0.0 mm/hr 0.02 in0.5 mm
02:57 AM 69.6°F20.9°C 59.2°F15.1°C 69% Calm Calm 4.4 mph7.1 kmh 30.16 in1021.3 mb 0.00 in0.0 mm 0.00 in/hr0.0 mm/hr 0.02 in0.5 mm
03:07 AM 69.7°F20.9°C 58.0°F14.4°C 66% Calm Calm 1.6 mph2.6 kmh 30.17 in1021.7 mb 0.00 in0.0 mm 0.00 in/hr0.0 mm/hr 0.02 in0.5 mm
03:17 AM 69.9°F21.1°C 56.5°F13.6°C 62% 4.4 mph WNW7.1 kmh WNW 5.8 mph9.3 kmh 30.17 in1021.7 mb 0.00 in0.0 mm 0.00 in/hr0.0 mm/hr 0.02 in0.5 mm
03:28 AM 70.8°F21.6°C 55.5°F13.1°C 58% Calm Calm 6.2 mph10.0 kmh 30.17 in1021.7 mb 0.00 in0.0 mm 0.00 in/hr0.0 mm/hr 0.02 in0.5 mm
03:38 AM 70.6°F21.4°C 52.7°F11.5°C 53% 1.7 mph WSW2.7 kmh WSW 2.2 mph3.5 kmh 30.17 in1021.7 mb 0.00 in0.0 mm 0.00 in/hr0.0 mm/hr 0.02 in0.5 mm
03:49 AM 70.6°F21.4°C 51.7°F10.9°C 51% 3.3 mph W5.3 kmh W 4.4 mph7.1 kmh 30.15 in1021.0 mb 0.00 in0.0 mm 0.00 in/hr0.0 mm/hr 0.02 in0.5 mm
03:59 AM 70.8°F21.6°C 51.3°F10.7°C 50% Calm Calm 4.4 mph7.1 kmh 30.16 in1021.3 mb 0.00 in0.0 mm 0.00 in/hr0.0 mm/hr 0.02 in0.5 mm
04:10 AM 69.9°F21.1°C 56.0°F13.3°C 61% Calm Calm 46.8 mph75.3 kmh 30.15 in1021.0 mb 0.00 in0.0 mm 0.00 in/hr0.0 mm/hr 0.02 in0.5 mm
04:20 AM 65.2°F18.4°C 54.9°F12.7°C 69% Calm Calm -- 30.14 in1020.7 mb 0.04 in1.0 mm 0.24 in/hr6.1 mm/hr 0.06 in1.5 mm
04:31 AM 65.1°F18.4°C 54.0°F12.2°C 67% Calm Calm -- 30.14 in1020.7 mb 0.04 in1.0 mm 0.00 in/hr0.0 mm/hr 0.06 in1.5 mm
04:41 AM 65.6°F18.7°C 52.8°F11.6°C 63% Calm Calm -- 30.13 in1020.3 mb 0.04 in1.0 mm 0.00 in/hr0.0 mm/hr 0.06 in1.5 mm
04:52 AM 66.7°F19.3°C 52.5°F11.4°C 60% Calm Calm -- 30.13 in1020.3 mb 0.04 in1.0 mm 0.00 in/hr0.0 mm/hr 0.06 in1.5 mm
05:02 AM 67.8°F19.9°C 52.2°F11.2°C 57% Calm Calm -- 30.13 in1020.3 mb 0.04 in1.0 mm 0.00 in/hr0.0 mm/hr 0.06 in1.5 mm
05:13 AM 68.5°F20.3°C 51.3°F10.7°C 54% Calm Calm 4.0 mph6.4 kmh 30.13 in1020.3 mb 0.04 in1.0 mm 0.00 in/hr0.0 mm/hr 0.06 in1.5 mm
05:23 AM 69.2°F20.7°C 50.4°F10.2°C 51% 1.9 mph NE3.1 kmh NE 2.6 mph4.2 kmh 30.14 in1020.7 mb 0.04 in1.0 mm 0.00 in/hr0.0 mm/hr 0.06 in1.5 mm
05:34 AM 70.6°F21.4°C 52.7°F11.5°C 53% 1.7 mph NE2.7 kmh NE 2.2 mph3.5 kmh 30.15 in1021.0 mb 0.04 in1.0 mm 0.00 in/hr0.0 mm/hr 0.06 in1.5 mm
05:44 AM 68.8°F20.4°C 58.0°F14.4°C 68% 2.2 mph SE3.5 kmh SE 6.2 mph10.0 kmh 30.15 in1021.0 mb 0.04 in1.0 mm 0.00 in/hr0.0 mm/hr 0.06 in1.5 mm
05:55 AM 67.9°F19.9°C 57.1°F13.9°C 68% 6.3 mph SSE10.1 kmh SSE 8.4 mph13.5 kmh 30.17 in1021.7 mb 0.04 in1.0 mm 0.00 in/hr0.0 mm/hr 0.06 in1.5 mm
06:05 AM 67.6°F19.8°C 56.8°F13.8°C 68% Calm Calm 0.8 mph1.3 kmh 30.17 in1021.7 mb 0.00 in0.0 mm 0.00 in/hr0.0 mm/hr 0.06 in1.5 mm
06:16 AM 67.8°F19.9°C 56.6°F13.7°C 67% Calm Calm 2.2 mph3.5 kmh 30.18 in1022.0 mb 0.00 in0.0 mm 0.00 in/hr0.0 mm/hr 0.06 in1.5 mm
06:27 AM 67.9°F19.9°C 55.9°F13.3°C 65% Calm Calm 2.6 mph4.2 kmh 30.18 in1022.0 mb 0.00 in0.0 mm 0.00 in/hr0.0 mm/hr 0.06 in1.5 mm
06:37 AM 68.5°F20.3°C 56.9°F13.8°C 66% Calm Calm -- 30.18 in1022.0 mb 0.00 in0.0 mm 0.00 in/hr0.0 mm/hr 0.06 in1.5 mm
06:48 AM 68.8°F20.4°C 56.3°F13.5°C 64% Calm Calm 2.6 mph4.2 kmh 30.18 in1022.0 mb 0.00 in0.0 mm 0.00 in/hr0.0 mm/hr 0.06 in1.5 mm
06:59 AM 73.0°F22.8°C 57.0°F13.9°C 57% Calm Calm -- 30.18 in1022.0 mb 0.00 in0.0 mm 0.00 in/hr0.0 mm/hr 0.06 in1.5 mm
07:09 AM 72.1°F22.3°C 57.2°F14.0°C 59% Calm Calm -- 30.17 in1021.7 mb 0.00 in0.0 mm 0.00 in/hr0.0 mm/hr 0.06 in1.5 mm
07:20 AM 71.4°F21.9°C 56.9°F13.8°C 60% Calm Calm 3.0 mph4.8 kmh 30.17 in1021.7 mb 0.00 in0.0 mm 0.00 in/hr0.0 mm/hr 0.06 in1.5 mm
07:30 AM 71.6°F22.0°C 57.1°F13.9°C 60% Calm Calm -- 30.18 in1022.0 mb 0.00 in0.0 mm 0.00 in/hr0.0 mm/hr 0.06 in1.5 mm
07:40 AM 72.6°F22.6°C 57.6°F14.2°C 59% Calm Calm -- 30.19 in1022.4 mb 0.00 in0.0 mm 0.00 in/hr0.0 mm/hr 0.06 in1.5 mm
07:51 AM 73.0°F22.8°C 57.0°F13.9°C 57% Calm Calm -- 30.18 in1022.0 mb 0.00 in0.0 mm 0.00 in/hr0.0 mm/hr 0.06 in1.5 mm
08:01 AM 74.0°F23.3°C 57.0°F13.9°C 55% Calm Calm -- 30.18 in1022.0 mb 0.00 in0.0 mm 0.00 in/hr0.0 mm/hr 0.06 in1.5 mm
08:12 AM 75.6°F24.2°C 57.9°F14.4°C 54% Calm Calm -- 30.19 in1022.4 mb 0.00 in0.0 mm 0.00 in/hr0.0 mm/hr 0.06 in1.5 mm
08:22 AM 77.3°F25.2°C 56.7°F13.7°C 49% Calm Calm -- 30.19 in1022.4 mb 0.00 in0.0 mm 0.00 in/hr0.0 mm/hr 0.06 in1.5 mm
08:33 AM 76.6°F24.8°C 56.1°F13.4°C 49% Calm Calm -- 30.19 in1022.4 mb 0.00 in0.0 mm 0.00 in/hr0.0 mm/hr 0.06 in1.5 mm
08:43 AM 76.9°F24.9°C 55.8°F13.2°C 48% Calm Calm -- 30.19 in1022.4 mb 0.00 in0.0 mm 0.00 in/hr0.0 mm/hr 0.06 in1.5 mm
08:54 AM 82.4°F28.0°C 58.9°F14.9°C 45% Calm Calm -- 30.19 in1022.4 mb 0.00 in0.0 mm 0.00 in/hr0.0 mm/hr 0.06 in1.5 mm
09:04 AM 87.4°F30.8°C 57.1°F13.9°C 36% Calm Calm -- 30.19 in1022.4 mb 0.00 in0.0 mm 0.00 in/hr0.0 mm/hr 0.06 in1.5 mm
09:15 AM 84.1°F28.9°C 54.1°F12.3°C 36% Calm Calm -- 30.19 in1022.4 mb 0.00 in0.0 mm 0.00 in/hr0.0 mm/hr 0.06 in1.5 mm
09:25 AM 88.0°F31.1°C 54.4°F12.4°C 32% Calm Calm -- 30.19 in1022.4 mb 0.00 in0.0 mm 0.00 in/hr0.0 mm/hr 0.06 in1.5 mm
09:36 AM 86.5°F30.3°C 52.1°F11.2°C 31% Calm Calm -- 30.19 in1022.4 mb 0.00 in0.0 mm 0.00 in/hr0.0 mm/hr 0.06 in1.5 mm
09:46 AM 85.6°F29.8°C 55.5°F13.1°C 36% Calm Calm 3.4 mph5.5 kmh 30.18 in1022.0 mb 0.00 in0.0 mm 0.00 in/hr0.0 mm/hr 0.06 in1.5 mm
09:57 AM 90.3°F32.4°C 56.3°F13.5°C 32% Calm Calm -- 30.17 in1021.7 mb 0.00 in0.0 mm 0.00 in/hr0.0 mm/hr 0.06 in1.5 mm
10:07 AM 87.2°F30.7°C 55.3°F12.9°C 34% Calm Calm 1.2 mph1.9 kmh 30.17 in1021.7 mb 0.00 in0.0 mm 0.00 in/hr0.0 mm/hr 0.06 in1.5 mm
10:18 AM 86.7°F30.4°C 53.2°F11.8°C 32% 0.9 mph NE1.4 kmh NE 3.0 mph4.8 kmh 30.17 in1021.7 mb 0.00 in0.0 mm 0.00 in/hr0.0 mm/hr 0.06 in1.5 mm
10:28 AM 85.8°F29.9°C 54.9°F12.7°C 35% 2.6 mph NE4.2 kmh NE 9.2 mph14.8 kmh 30.17 in1021.7 mb 0.00 in0.0 mm 0.00 in/hr0.0 mm/hr 0.06 in1.5 mm
10:39 AM 82.3°F27.9°C 51.8°F11.0°C 35% 3.0 mph NE4.8 kmh NE 8.8 mph14.2 kmh 30.17 in1021.7 mb 0.00 in0.0 mm 0.00 in/hr0.0 mm/hr 0.06 in1.5 mm
10:49 AM 84.3°F29.1°C 52.8°F11.6°C 34% 3.0 mph 4.8 kmh 5.8 mph9.3 kmh 30.17 in1021.7 mb 0.00 in0.0 mm 0.00 in/hr0.0 mm/hr 0.06 in1.5 mm
10:59 AM 84.2°F29.0°C 52.7°F11.5°C 34% 2.8 mph NE4.5 kmh NE 28.0 mph45.1 kmh 30.17 in1021.7 mb 0.00 in0.0 mm 0.00 in/hr0.0 mm/hr 0.06 in1.5 mm
11:10 AM 83.4°F28.6°C 51.2°F10.7°C 33% 4.9 mph ENE7.9 kmh ENE 8.0 mph12.9 kmh 30.16 in1021.3 mb 0.00 in0.0 mm 0.00 in/hr0.0 mm/hr 0.06 in1.5 mm
11:20 AM 84.7°F29.3°C 51.4°F10.8°C 32% 2.1 mph SE3.4 kmh SE 50.0 mph80.5 kmh 30.16 in1021.3 mb 0.00 in0.0 mm 0.00 in/hr0.0 mm/hr 0.06 in1.5 mm
11:31 AM 86.0°F30.0°C 51.7°F10.9°C 31% 0.9 mph NNE1.4 kmh NNE 23.2 mph37.3 kmh 30.17 in1021.7 mb 0.00 in0.0 mm 0.00 in/hr0.0 mm/hr 0.06 in1.5 mm
11:41 AM 87.2°F30.7°C 51.9°F11.1°C 30% 1.9 mph NE3.1 kmh NE 5.2 mph8.4 kmh 30.17 in1021.7 mb 0.00 in0.0 mm 0.00 in/hr0.0 mm/hr 0.06 in1.5 mm
11:52 AM 85.4°F29.7°C 53.7°F12.1°C 34% 0.9 mph NE1.4 kmh NE 10.2 mph16.4 kmh 30.16 in1021.3 mb 0.00 in0.0 mm 0.00 in/hr0.0 mm/hr 0.06 in1.5 mm
12:02 PM 88.0°F31.1°C 50.7°F10.4°C 28% Calm Calm 4.4 mph7.1 kmh 30.16 in1021.3 mb 0.00 in0.0 mm 0.00 in/hr0.0 mm/hr 0.06 in1.5 mm
12:13 PM 87.6°F30.9°C 50.3°F10.2°C 28% 1.2 mph NE1.9 kmh NE 20.0 mph32.2 kmh 30.15 in1021.0 mb 0.00 in0.0 mm 0.00 in/hr0.0 mm/hr 0.06 in1.5 mm
12:23 PM 87.1°F30.6°C 49.9°F9.9°C 28% 3.6 mph ENE5.8 kmh ENE 7.6 mph12.2 kmh 30.15 in1021.0 mb 0.00 in0.0 mm 0.00 in/hr0.0 mm/hr 0.06 in1.5 mm
12:34 PM 86.3°F30.2°C 51.1°F10.6°C 30% 3.6 mph 5.8 kmh 5.2 mph8.4 kmh 30.15 in1021.0 mb 0.00 in0.0 mm 0.00 in/hr0.0 mm/hr 0.06 in1.5 mm
12:44 PM 88.6°F31.4°C 51.2°F10.7°C 28% 0.6 mph NW1.0 kmh NW 0.8 mph1.3 kmh 30.15 in1021.0 mb 0.00 in0.0 mm 0.00 in/hr0.0 mm/hr 0.06 in1.5 mm
12:55 PM 90.9°F32.7°C 55.1°F12.8°C 30% Calm Calm 3.0 mph4.8 kmh 30.14 in1020.7 mb 0.00 in0.0 mm 0.00 in/hr0.0 mm/hr 0.06 in1.5 mm
01:05 PM 91.1°F32.8°C 52.4°F11.3°C 27% Calm Calm 4.4 mph7.1 kmh 30.14 in1020.7 mb 0.00 in0.0 mm 0.00 in/hr0.0 mm/hr 0.06 in1.5 mm
01:16 PM 91.5°F33.1°C 51.7°F10.9°C 26% 2.3 mph WNW3.7 kmh WNW 3.0 mph4.8 kmh 30.14 in1020.7 mb 0.00 in0.0 mm 0.00 in/hr0.0 mm/hr 0.06 in1.5 mm
01:26 PM 89.1°F31.7°C 50.7°F10.4°C 27% 2.3 mph ESE3.7 kmh ESE 3.4 mph5.5 kmh 30.14 in1020.7 mb 0.00 in0.0 mm 0.00 in/hr0.0 mm/hr 0.06 in1.5 mm
01:37 PM 92.8°F33.8°C 50.6°F10.3°C 24% 6.0 mph NW9.7 kmh NW 8.0 mph12.9 kmh 30.13 in1020.3 mb 0.00 in0.0 mm 0.00 in/hr0.0 mm/hr 0.06 in1.5 mm
01:47 PM 86.2°F30.1°C 51.0°F10.6°C 30% Calm Calm 0.8 mph1.3 kmh 30.13 in1020.3 mb 0.00 in0.0 mm 0.00 in/hr0.0 mm/hr 0.06 in1.5 mm
01:57 PM 86.2°F30.1°C 51.9°F11.1°C 31% Calm Calm -- 30.12 in1020.0 mb 0.00 in0.0 mm 0.00 in/hr0.0 mm/hr 0.06 in1.5 mm
02:08 PM 84.3°F29.1°C 50.2°F10.1°C 31% Calm Calm -- 30.12 in1020.0 mb 0.00 in0.0 mm 0.00 in/hr0.0 mm/hr 0.06 in1.5 mm
02:18 PM 84.1°F28.9°C 51.0°F10.6°C 32% Calm Calm 7.0 mph11.3 kmh 30.12 in1020.0 mb 0.00 in0.0 mm 0.00 in/hr0.0 mm/hr 0.06 in1.5 mm
02:29 PM 84.8°F29.3°C 52.4°F11.3°C 33% 0.9 mph W1.4 kmh W 1.2 mph1.9 kmh 30.11 in1019.6 mb 0.00 in0.0 mm 0.00 in/hr0.0 mm/hr 0.06 in1.5 mm
02:39 PM 83.4°F28.6°C 58.5°F14.7°C 43% Calm Calm 1.2 mph1.9 kmh 30.11 in1019.6 mb 0.00 in0.0 mm 0.00 in/hr0.0 mm/hr 0.06 in1.5 mm
02:50 PM 81.0°F27.2°C 56.3°F13.5°C 43% 1.9 mph SSW3.1 kmh SSW 2.6 mph4.2 kmh 30.11 in1019.6 mb 0.00 in0.0 mm 0.00 in/hr0.0 mm/hr 0.06 in1.5 mm
03:00 PM 82.4°F28.0°C 56.3°F13.5°C 41% Calm Calm -- 30.09 in1019.0 mb 0.00 in0.0 mm 0.00 in/hr0.0 mm/hr 0.06 in1.5 mm
03:11 PM 83.4°F28.6°C 57.2°F14.0°C 41% Calm Calm 4.8 mph7.7 kmh 30.09 in1019.0 mb 0.00 in0.0 mm 0.00 in/hr0.0 mm/hr 0.06 in1.5 mm
03:21 PM 85.9°F29.9°C 56.6°F13.7°C 37% 3.3 mph W5.3 kmh W 4.4 mph7.1 kmh 30.09 in1019.0 mb 0.00 in0.0 mm 0.00 in/hr0.0 mm/hr 0.06 in1.5 mm
03:32 PM 89.0°F31.7°C 54.3°F12.4°C 31% 0.6 mph WNW1.0 kmh WNW 6.2 mph10.0 kmh 30.09 in1019.0 mb 0.00 in0.0 mm 0.00 in/hr0.0 mm/hr 0.06 in1.5 mm
03:42 PM 87.4°F30.8°C 53.8°F12.1°C 32% Calm Calm -- 30.09 in1019.0 mb 0.00 in0.0 mm 0.00 in/hr0.0 mm/hr 0.06 in1.5 mm
03:53 PM 86.3°F30.2°C 55.3°F12.9°C 35% 6.0 mph WNW9.7 kmh WNW 8.0 mph12.9 kmh 30.09 in1019.0 mb 0.00 in0.0 mm 0.00 in/hr0.0 mm/hr 0.06 in1.5 mm
04:03 PM 84.0°F28.9°C 54.1°F12.3°C 36% 9.6 mph NW15.4 kmh NW 50.0 mph80.5 kmh 30.09 in1019.0 mb 0.00 in0.0 mm 0.00 in/hr0.0 mm/hr 0.06 in1.5 mm
04:14 PM 84.4°F29.1°C 53.6°F12.0°C 35% 9.0 mph N14.5 kmh N 36.6 mph58.9 kmh 30.09 in1019.0 mb 0.00 in0.0 mm 0.00 in/hr0.0 mm/hr 0.06 in1.5 mm
04:24 PM 85.1°F29.5°C 55.0°F12.8°C 36% 6.2 mph NNW10.0 kmh NNW 68.0 mph109.4 kmh 30.09 in1019.0 mb 0.00 in0.0 mm 0.00 in/hr0.0 mm/hr 0.06 in1.5 mm
04:35 PM 88.4°F31.3°C 55.6°F13.1°C 33% 3.6 mph NW5.8 kmh NW 52.6 mph84.7 kmh 30.09 in1019.0 mb 0.00 in0.0 mm 0.00 in/hr0.0 mm/hr 0.06 in1.5 mm
04:45 PM 89.3°F31.8°C 57.1°F13.9°C 34% Calm Calm 1.2 mph1.9 kmh 30.09 in1019.0 mb 0.00 in0.0 mm 0.00 in/hr0.0 mm/hr 0.06 in1.5 mm
04:55 PM 90.3°F32.4°C 56.4°F13.6°C 32% Calm Calm 1.2 mph1.9 kmh 30.09 in1019.0 mb 0.00 in0.0 mm 0.00 in/hr0.0 mm/hr 0.06 in1.5 mm
05:06 PM 91.6°F33.1°C 55.7°F13.2°C 30% 2.6 mph W4.2 kmh W 3.4 mph5.5 kmh 30.09 in1019.0 mb 0.00 in0.0 mm 0.00 in/hr0.0 mm/hr 0.06 in1.5 mm
05:16 PM 90.9°F32.7°C 56.8°F13.8°C 32% 0.9 mph SSW1.4 kmh SSW 12.4 mph20.0 kmh 30.09 in1019.0 mb 0.00 in0.0 mm 0.00 in/hr0.0 mm/hr 0.06 in1.5 mm
05:27 PM 90.3°F32.4°C 56.4°F13.6°C 32% 3.6 mph NW5.8 kmh NW 4.8 mph7.7 kmh 30.09 in1019.0 mb 0.00 in0.0 mm 0.00 in/hr0.0 mm/hr 0.06 in1.5 mm
05:37 PM 90.7°F32.6°C 56.7°F13.7°C 32% Calm Calm -- 30.09 in1019.0 mb 0.00 in0.0 mm 0.00 in/hr0.0 mm/hr 0.06 in1.5 mm
05:48 PM 88.9°F31.6°C 55.9°F13.3°C 33% Calm Calm 2.2 mph3.5 kmh 30.10 in1019.3 mb 0.00 in0.0 mm 0.00 in/hr0.0 mm/hr 0.06 in1.5 mm
05:58 PM 85.7°F29.8°C 55.6°F13.1°C 36% 2.3 mph W3.7 kmh W 42.4 mph68.2 kmh 30.10 in1019.3 mb 0.00 in0.0 mm 0.00 in/hr0.0 mm/hr 0.06 in1.5 mm
06:09 PM 87.0°F30.6°C 56.7°F13.7°C 36% 3.9 mph W6.3 kmh W 5.2 mph8.4 kmh 30.10 in1019.3 mb 0.00 in0.0 mm 0.00 in/hr0.0 mm/hr 0.06 in1.5 mm
06:19 PM 87.9°F31.1°C 56.7°F13.7°C 35% 0.3 mph WNW0.5 kmh WNW 5.2 mph8.4 kmh 30.10 in1019.3 mb 0.00 in0.0 mm 0.00 in/hr0.0 mm/hr 0.06 in1.5 mm
06:30 PM 87.1°F30.6°C 56.0°F13.3°C 35% 2.2 mph W3.5 kmh W 3.0 mph4.8 kmh 30.10 in1019.3 mb 0.00 in0.0 mm 0.00 in/hr0.0 mm/hr 0.06 in1.5 mm
06:40 PM 85.6°F29.8°C 55.5°F13.1°C 36% 5.5 mph WNW8.9 kmh WNW 7.6 mph12.2 kmh 30.10 in1019.3 mb 0.00 in0.0 mm 0.00 in/hr0.0 mm/hr 0.06 in1.5 mm
06:51 PM 83.7°F28.7°C 56.0°F13.3°C 39% 2.6 mph NW4.2 kmh NW 33.0 mph53.1 kmh 30.11 in1019.6 mb 0.00 in0.0 mm 0.00 in/hr0.0 mm/hr 0.06 in1.5 mm
07:01 PM 82.5°F28.1°C 56.4°F13.6°C 41% 5.8 mph NW9.3 kmh NW 42.8 mph68.9 kmh 30.10 in1019.3 mb 0.00 in0.0 mm 0.00 in/hr0.0 mm/hr 0.06 in1.5 mm
07:12 PM 82.0°F27.8°C 57.3°F14.1°C 43% Calm Calm 42.4 mph68.2 kmh 30.11 in1019.6 mb 0.00 in0.0 mm 0.00 in/hr0.0 mm/hr 0.06 in1.5 mm
07:22 PM 81.3°F27.4°C 58.0°F14.4°C 45% 4.4 mph NNW7.1 kmh NNW 8.0 mph12.9 kmh 30.11 in1019.6 mb 0.00 in0.0 mm 0.00 in/hr0.0 mm/hr 0.06 in1.5 mm
07:33 PM 81.1°F27.3°C 58.4°F14.7°C 46% 1.0 mph NE1.6 kmh NE 31.2 mph50.2 kmh 30.12 in1020.0 mb 0.00 in0.0 mm 0.00 in/hr0.0 mm/hr 0.06 in1.5 mm
07:43 PM 80.2°F26.8°C 58.2°F14.6°C 47% Calm Calm 2.6 mph4.2 kmh 30.12 in1020.0 mb 0.00 in0.0 mm 0.00 in/hr0.0 mm/hr 0.06 in1.5 mm
07:54 PM 79.6°F26.4°C 58.3°F14.6°C 48% Calm Calm 7.6 mph12.2 kmh 30.14 in1020.7 mb 0.00 in0.0 mm 0.00 in/hr0.0 mm/hr 0.06 in1.5 mm
08:04 PM 79.6°F26.4°C 58.3°F14.6°C 48% 3.0 mph NW4.8 kmh NW 4.0 mph6.4 kmh 30.14 in1020.7 mb 0.00 in0.0 mm 0.00 in/hr0.0 mm/hr 0.06 in1.5 mm
08:15 PM 79.3°F26.3°C 58.0°F14.4°C 48% 0.3 mph NW0.5 kmh NW 7.6 mph12.2 kmh 30.13 in1020.3 mb 0.00 in0.0 mm 0.00 in/hr0.0 mm/hr 0.06 in1.5 mm
08:25 PM 79.1°F26.2°C 58.4°F14.7°C 49% 5.4 mph NNW8.7 kmh NNW 43.2 mph69.5 kmh 30.15 in1021.0 mb 0.00 in0.0 mm 0.00 in/hr0.0 mm/hr 0.06 in1.5 mm
08:36 PM 74.6°F23.7°C 56.5°F13.6°C 53% 10.2 mph ENE16.4 kmh ENE 49.6 mph79.8 kmh 30.16 in1021.3 mb 0.00 in0.0 mm 0.00 in/hr0.0 mm/hr 0.06 in1.5 mm
08:46 PM 72.3°F22.4°C 58.3°F14.6°C 61% 15.8 mph S25.4 kmh S 39.8 mph64.1 kmh 30.19 in1022.4 mb 0.00 in0.0 mm 0.00 in/hr0.0 mm/hr 0.06 in1.5 mm
08:57 PM 67.2°F19.6°C 60.2°F15.7°C 78% 9.4 mph SE15.1 kmh SE 42.0 mph67.6 kmh 30.21 in1023.0 mb 0.00 in0.0 mm 0.00 in/hr0.0 mm/hr 0.06 in1.5 mm
09:07 PM 64.3°F17.9°C 59.7°F15.4°C 85% 8.6 mph SSE13.8 kmh SSE 37.0 mph59.5 kmh 30.23 in1023.7 mb 0.00 in0.0 mm 0.00 in/hr0.0 mm/hr 0.06 in1.5 mm
09:18 PM 64.3°F17.9°C 60.3°F15.7°C 87% 1.7 mph S2.7 kmh S 26.2 mph42.2 kmh 30.24 in1024.0 mb 0.00 in0.0 mm 0.00 in/hr0.0 mm/hr 0.06 in1.5 mm
09:28 PM 64.3°F17.9°C 60.0°F15.6°C 86% 1.7 mph S2.7 kmh S 2.2 mph3.5 kmh 30.24 in1024.0 mb 0.00 in0.0 mm 0.00 in/hr0.0 mm/hr 0.06 in1.5 mm
09:38 PM 63.8°F17.7°C 59.9°F15.5°C 87% Calm Calm 2.2 mph3.5 kmh 30.24 in1024.0 mb 0.02 in0.5 mm 0.12 in/hr3.0 mm/hr 0.08 in2.0 mm
09:49 PM 63.6°F17.6°C 59.7°F15.4°C 87% Calm Calm -- 30.24 in1024.0 mb 0.08 in2.0 mm 0.33 in/hr8.4 mm/hr 0.14 in3.6 mm
09:59 PM 64.0°F17.8°C 60.4°F15.8°C 88% Calm Calm -- 30.24 in1024.0 mb 0.16 in4.1 mm 0.48 in/hr12.2 mm/hr 0.23 in5.8 mm
10:10 PM 63.8°F17.7°C 60.5°F15.8°C 89% Calm Calm -- 30.24 in1024.0 mb 0.29 in7.4 mm 0.16 in/hr4.1 mm/hr 0.35 in8.9 mm
10:20 PM 63.4°F17.4°C 60.1°F15.6°C 89% 3.4 mph SW5.5 kmh SW 19.6 mph31.5 kmh 30.23 in1023.7 mb 0.33 in8.4 mm 0.24 in/hr6.1 mm/hr 0.39 in9.9 mm
10:31 PM 63.4°F17.4°C 59.5°F15.3°C 87% 1.9 mph SE3.1 kmh SE 2.6 mph4.2 kmh 30.23 in1023.7 mb 0.35 in8.9 mm 0.11 in/hr2.8 mm/hr 0.43 in10.9 mm
10:41 PM 63.4°F17.4°C 59.5°F15.3°C 87% Calm Calm 4.0 mph6.4 kmh 30.23 in1023.7 mb 0.37 in9.4 mm 0.12 in/hr3.0 mm/hr 0.45 in11.4 mm
10:52 PM 63.1°F17.3°C 59.5°F15.3°C 88% Calm Calm -- 30.24 in1024.0 mb 0.37 in9.4 mm 0.00 in/hr0.0 mm/hr 0.45 in11.4 mm
11:02 PM 63.4°F17.4°C 59.8°F15.4°C 88% Calm Calm -- 30.23 in1023.7 mb 0.18 in4.6 mm 0.00 in/hr0.0 mm/hr 0.47 in11.9 mm
11:13 PM 63.4°F17.4°C 59.8°F15.4°C 88% Calm Calm -- 30.22 in1023.4 mb 0.18 in4.6 mm 0.00 in/hr0.0 mm/hr 0.47 in11.9 mm
11:23 PM 63.3°F17.4°C 59.7°F15.4°C 88% Calm Calm -- 30.22 in1023.4 mb 0.18 in4.6 mm 0.00 in/hr0.0 mm/hr 0.47 in11.9 mm
11:34 PM 63.6°F17.6°C 60.6°F15.9°C 90% Calm Calm -- 30.22 in1023.4 mb 0.08 in2.0 mm 0.00 in/hr0.0 mm/hr 0.49 in12.4 mm
11:44 PM 63.6°F17.6°C 60.0°F15.6°C 88% Calm Calm -- 30.22 in1023.4 mb 0.08 in2.0 mm 0.00 in/hr0.0 mm/hr 0.53 in13.5 mm
11:55 PM 62.7°F17.1°C 59.1°F15.1°C 88% Calm Calm -- 30.23 in1023.7 mb 0.10 in2.5 mm 0.11 in/hr2.8 mm/hr 0.55 in14.0 mm